Time;durP1;ratioP1;P1;durP2;ratioP2;P2;SDS_P1;SDS_P2;PMS_P1;PMS_P2;Temp;Humidity;BMP_temperature;BMP_pressure;BME280_temperature;BME280_humidity;BME280_pressure;Samples;Min_cycle;Max_cycle;Signal;HPM_P1;HPM_P2
2023/10/09 00:02:14;;;;;;;2.28;1.70;;;18.50;99.90;;;;;;5062635;28;20256;-70
2023/10/09 00:04:42;;;;;;;3.72;2.15;;;18.40;99.90;;;;;;5061323;28;20247;-72
2023/10/09 00:07:10;;;;;;;2.95;1.58;;;18.40;99.90;;;;;;5067299;28;20203;-71
2023/10/09 00:09:46;;;;;;;3.05;2.00;;;18.40;99.90;;;;;;5063136;28;20218;-74
2023/10/09 00:12:22;;;;;;;4.32;1.90;;;18.30;99.90;;;;;;5060882;28;20203;-71
2023/10/09 00:14:50;;;;;;;4.82;2.03;;;18.40;99.90;;;;;;5063795;28;20615;-72
2023/10/09 00:17:22;;;;;;;4.40;1.92;;;18.40;99.90;;;;;;5061400;28;20286;-71
2023/10/09 00:19:51;;;;;;;3.45;1.58;;;18.40;99.90;;;;;;5062310;28;20287;-71
2023/10/09 00:22:28;;;;;;;5.15;2.25;;;18.30;99.90;;;;;;5059845;28;20637;-71
2023/10/09 00:27:52;;;;;;;3.75;2.20;;;18.30;99.90;;;;;;5142277;27;20697;-70
2023/10/09 00:30:21;;;;;;;2.92;1.70;;;18.30;99.90;;;;;;5129656;27;20211;-70
2023/10/09 00:32:59;;;;;;;3.60;1.85;;;18.20;99.90;;;;;;5134000;27;20211;-71
2023/10/09 00:35:54;;;;;;;3.22;1.83;;;18.20;99.90;;;;;;5132744;27;20253;-71
2023/10/09 00:38:24;;;;;;;2.95;2.05;;;18.20;99.90;;;;;;5132964;27;20220;-71
2023/10/09 00:41:04;;;;;;;5.53;2.20;;;18.20;99.90;;;;;;5134011;27;20219;-71
2023/10/09 00:43:35;;;;;;;5.40;2.25;;;18.20;99.90;;;;;;5139766;27;20282;-71
2023/10/09 00:46:12;;;;;;;5.20;2.38;;;18.10;99.90;;;;;;5140947;27;20275;-71
2023/10/09 00:48:40;;;;;;;4.05;1.90;;;18.10;99.90;;;;;;5137762;27;20204;-72
2023/10/09 00:51:16;;;;;;;5.10;1.55;;;18.10;99.90;;;;;;5134530;27;20192;-71
2023/10/09 00:53:45;;;;;;;3.30;2.00;;;18.20;99.90;;;;;;5135675;27;20203;-72
2023/10/09 00:56:28;;;;;;;3.05;2.08;;;18.20;99.90;;;;;;5137002;27;20765;-71
2023/10/09 00:59:07;;;;;;;2.00;1.45;;;18.20;99.90;;;;;;5139616;27;20238;-72
2023/10/09 01:01:36;;;;;;;3.88;2.08;;;18.20;99.90;;;;;;5140789;27;20195;-71
2023/10/09 01:04:14;;;;;;;2.67;1.88;;;18.10;99.90;;;;;;5136833;27;20187;-70
2023/10/09 01:06:44;;;;;;;4.07;1.70;;;18.10;99.90;;;;;;5135270;27;20852;-72
2023/10/09 01:09:16;;;;;;;4.95;2.28;;;18.10;99.90;;;;;;5136845;27;20222;-71
2023/10/09 01:14:26;;;;;;;2.65;1.85;;;18.00;99.90;;;;;;5133395;27;20194;-70
2023/10/09 01:16:55;;;;;;;4.45;2.17;;;18.00;99.90;;;;;;5137023;27;20206;-70
2023/10/09 01:19:23;;;;;;;3.58;1.95;;;18.00;99.90;;;;;;5160674;27;20212;-72
2023/10/09 01:21:51;;;;;;;4.72;1.90;;;18.00;99.90;;;;;;5165286;27;20204;-73
2023/10/09 01:24:20;;;;;;;3.90;2.08;;;17.90;99.90;;;;;;5166869;27;20245;-72
2023/10/09 01:26:49;;;;;;;6.45;2.17;;;17.90;99.90;;;;;;5144128;27;20307;-70
2023/10/09 01:29:19;;;;;;;2.65;1.70;;;17.90;99.90;;;;;;5137126;27;20760;-72
2023/10/09 01:31:52;;;;;;;4.65;2.40;;;17.90;99.90;;;;;;5138652;27;20231;-71
2023/10/09 01:34:23;;;;;;;2.90;1.83;;;17.90;99.90;;;;;;5138473;27;20282;-71
2023/10/09 01:36:55;;;;;;;4.22;1.63;;;17.90;99.90;;;;;;5140725;27;20324;-70
2023/10/09 01:39:26;;;;;;;2.53;1.65;;;17.90;99.90;;;;;;5121705;27;20904;-72
2023/10/09 01:41:58;;;;;;;3.85;1.80;;;17.90;99.90;;;;;;5119312;27;20287;-71
2023/10/09 01:44:34;;;;;;;5.63;2.42;;;17.90;99.90;;;;;;5121916;27;20284;-70
2023/10/09 01:47:06;;;;;;;5.03;1.70;;;18.00;99.90;;;;;;5124887;27;20213;-70
2023/10/09 01:49:35;;;;;;;3.60;2.05;;;18.00;99.90;;;;;;5121465;27;20220;-71
2023/10/09 01:52:08;;;;;;;3.33;1.90;;;18.00;99.90;;;;;;5124432;27;20196;-71
2023/10/09 01:54:37;;;;;;;5.18;2.08;;;18.00;99.90;;;;;;5119607;27;20214;-71
2023/10/09 01:57:10;;;;;;;4.22;1.95;;;18.00;99.90;;;;;;5122206;27;20733;-70
2023/10/09 01:59:43;;;;;;;3.05;1.70;;;17.90;99.90;;;;;;5115949;27;20224;-71
2023/10/09 02:02:24;;;;;;;3.38;1.80;;;17.90;99.90;;;;;;5116973;27;20215;-71
2023/10/09 02:04:52;;;;;;;3.20;1.90;;;17.90;99.90;;;;;;5122668;27;20295;-70
2023/10/09 02:07:28;;;;;;;3.88;1.90;;;17.90;99.90;;;;;;5115373;27;20296;-70
2023/10/09 02:09:57;;;;;;;3.13;1.80;;;17.90;99.90;;;;;;5116724;27;20216;-72
2023/10/09 02:12:24;;;;;;;1.88;1.50;;;17.90;99.90;;;;;;5120578;27;20223;-71
2023/10/09 02:14:55;;;;;;;2.05;1.70;;;17.90;99.90;;;;;;5120105;27;20197;-71
2023/10/09 02:17:28;;;;;;;5.80;2.35;;;17.90;99.90;;;;;;5121732;27;20890;-71
2023/10/09 02:19:55;;;;;;;3.80;2.00;;;17.90;99.90;;;;;;5122558;27;20226;-71
2023/10/09 02:22:26;;;;;;;2.08;1.42;;;17.80;99.90;;;;;;5125438;27;20296;-71
2023/10/09 02:24:59;;;;;;;3.75;2.13;;;17.80;99.90;;;;;;5119740;27;20192;-72
2023/10/09 02:30:15;;;;;;;3.97;1.88;;;17.80;99.90;;;;;;5125335;27;20216;-71
2023/10/09 02:32:43;;;;;;;3.95;2.00;;;17.80;99.90;;;;;;5118656;27;20253;-71
2023/10/09 02:35:20;;;;;;;4.13;1.80;;;17.70;99.90;;;;;;5123283;27;20241;-71
2023/10/09 02:37:47;;;;;;;3.97;1.60;;;17.70;99.90;;;;;;5122255;27;20222;-71
2023/10/09 02:40:23;;;;;;;3.70;1.77;;;17.70;99.90;;;;;;5116296;27;20744;-71
2023/10/09 02:42:52;;;;;;;3.05;1.75;;;17.70;99.90;;;;;;5119640;27;20198;-72
2023/10/09 02:45:19;;;;;;;3.25;2.03;;;17.60;99.90;;;;;;5121552;27;20227;-71
2023/10/09 02:47:48;;;;;;;2.15;1.75;;;17.60;99.90;;;;;;5122533;27;20315;-70
2023/10/09 02:50:28;;;;;;;4.20;1.88;;;17.60;99.90;;;;;;5118456;27;20212;-70
2023/10/09 02:53:00;;;;;;;6.40;2.10;;;17.60;99.90;;;;;;5120302;27;20204;-71
2023/10/09 02:55:27;;;;;;;5.50;2.13;;;17.50;99.90;;;;;;5126212;27;20201;-71
2023/10/09 02:58:07;;;;;;;5.40;2.22;;;17.50;99.90;;;;;;5128756;27;20253;-71
2023/10/09 03:00:36;;;;;;;4.18;2.03;;;17.50;99.90;;;;;;5120398;27;20235;-71
2023/10/09 03:03:06;;;;;;;4.38;1.85;;;17.40;99.90;;;;;;5121191;27;20203;-72
2023/10/09 03:05:34;;;;;;;3.80;1.95;;;17.30;99.90;;;;;;5122912;27;20272;-71
2023/10/09 03:08:02;;;;;;;2.63;1.95;;;17.40;99.90;;;;;;5119314;27;20248;-73
2023/10/09 03:10:29;;;;;;;4.07;2.03;;;17.30;99.90;;;;;;5123153;27;20219;-70
2023/10/09 03:13:01;;;;;;;5.65;2.03;;;17.30;99.90;;;;;;5119459;27;20689;-71
2023/10/09 03:15:30;;;;;;;1.90;1.50;;;17.30;99.90;;;;;;5117038;27;20220;-70
2023/10/09 03:17:59;;;;;;;3.97;1.83;;;17.30;99.90;;;;;;5122700;27;20516;-72
2023/10/09 03:20:26;;;;;;;4.88;2.22;;;17.30;99.90;;;;;;5123018;27;20720;-70
2023/10/09 03:22:54;;;;;;;3.15;1.75;;;17.30;99.90;;;;;;5117552;27;20223;-71
2023/10/09 03:25:20;;;;;;;3.13;1.60;;;17.30;99.90;;;;;;5120781;27;20283;-72
2023/10/09 03:27:47;;;;;;;4.43;1.60;;;17.30;99.90;;;;;;5121266;27;20310;-72
2023/10/09 03:30:22;;;;;;;3.38;2.03;;;17.30;99.90;;;;;;5126272;27;20268;-72
2023/10/09 03:32:51;;;;;;;4.72;1.90;;;17.20;99.90;;;;;;5124163;27;20204;-73
2023/10/09 03:35:24;;;;;;;3.00;1.77;;;17.20;99.90;;;;;;5120029;27;20614;-73
2023/10/09 03:37:56;;;;;;;4.85;2.00;;;17.20;99.90;;;;;;5122688;27;20199;-71
2023/10/09 03:40:24;;;;;;;2.97;2.15;;;17.20;99.90;;;;;;5121203;27;20281;-73
2023/10/09 03:42:52;;;;;;;4.75;2.10;;;17.20;99.90;;;;;;5119303;27;20196;-72
2023/10/09 03:45:26;;;;;;;4.15;1.98;;;17.20;99.90;;;;;;5118978;27;20204;-73
2023/10/09 03:48:01;;;;;;;4.15;2.00;;;17.20;99.90;;;;;;5119158;27;20223;-73
2023/10/09 03:50:35;;;;;;;3.83;1.77;;;17.20;99.90;;;;;;5118750;27;20219;-72
2023/10/09 03:53:06;;;;;;;3.72;1.63;;;17.20;99.90;;;;;;5117769;27;20207;-72
2023/10/09 03:55:33;;;;;;;3.38;1.80;;;17.20;99.90;;;;;;5119129;27;20203;-73
2023/10/09 03:58:00;;;;;;;3.95;2.03;;;17.20;99.90;;;;;;5114394;27;20242;-73
2023/10/09 04:00:31;;;;;;;2.85;1.55;;;17.10;99.90;;;;;;5116986;27;20213;-72
2023/10/09 04:02:59;;;;;;;3.63;1.90;;;17.10;99.90;;;;;;5114301;27;20222;-73
2023/10/09 04:05:28;;;;;;;2.88;1.98;;;17.10;99.90;;;;;;5122114;27;20290;-71
2023/10/09 04:07:58;;;;;;;6.07;2.10;;;17.10;99.90;;;;;;5121950;27;20251;-70
2023/10/09 04:10:50;;;;;;;3.83;2.50;;;17.10;99.90;;;;;;5119835;27;20221;-71
2023/10/09 04:13:22;;;;;;;7.30;2.17;;;17.10;99.90;;;;;;5117249;27;20288;-70
2023/10/09 04:15:53;;;;;;;3.45;1.75;;;17.00;99.90;;;;;;5119467;27;20200;-71
2023/10/09 04:18:27;;;;;;;3.72;2.08;;;17.00;99.90;;;;;;5118594;27;20297;-70
2023/10/09 04:26:21;;;;;;;3.22;1.95;;;16.90;99.90;;;;;;5122341;27;20286;-71
2023/10/09 04:28:51;;;;;;;3.92;2.10;;;16.90;99.90;;;;;;5139563;27;20212;-71
2023/10/09 04:31:22;;;;;;;2.85;2.03;;;16.90;99.90;;;;;;5135872;27;20201;-70
2023/10/09 04:33:57;;;;;;;4.38;2.53;;;16.90;99.90;;;;;;5119603;27;20196;-71
2023/10/09 04:36:28;;;;;;;2.67;1.80;;;16.80;99.90;;;;;;5121674;27;20200;-72
2023/10/09 04:39:16;;;;;;;1.55;1.45;;;16.80;99.90;;;;;;5122301;27;20230;-71
2023/10/09 04:42:18;;;;;;;3.85;2.05;;;16.80;99.90;;;;;;5120201;27;20291;-71
2023/10/09 04:44:59;;;;;;;3.25;1.92;;;16.70;99.90;;;;;;5117857;27;20720;-71
2023/10/09 04:47:36;;;;;;;3.88;1.80;;;16.70;99.90;;;;;;5119610;27;20266;-71
2023/10/09 04:50:06;;;;;;;2.03;1.70;;;16.60;99.90;;;;;;5117872;27;20269;-71
2023/10/09 04:55:19;;;;;;;4.05;1.70;;;16.60;99.90;;;;;;5147472;28;20171;-72
2023/10/09 04:58:00;;;;;;;5.10;1.98;;;16.60;99.90;;;;;;5149975;27;20191;-73
2023/10/09 05:03:25;;;;;;;2.53;1.98;;;16.60;99.90;;;;;;5118026;27;20207;-71
2023/10/09 05:05:59;;;;;;;3.63;1.80;;;16.60;99.90;;;;;;5123234;27;20196;-71
2023/10/09 05:08:29;;;;;;;3.33;1.55;;;16.60;99.90;;;;;;5123555;27;20211;-71
2023/10/09 05:11:15;;;;;;;5.53;1.92;;;16.60;99.90;;;;;;5121326;27;20223;-71
2023/10/09 05:13:44;;;;;;;4.63;1.90;;;16.60;99.90;;;;;;5123879;27;20199;-69
2023/10/09 05:16:18;;;;;;;1.90;1.52;;;16.60;99.90;;;;;;5120611;27;20291;-71
2023/10/09 05:18:55;;;;;;;2.13;1.67;;;16.60;99.90;;;;;;5110235;27;20207;-71
2023/10/09 05:24:23;;;;;;;2.65;1.90;;;16.60;99.90;;;;;;5110797;27;20207;-71
2023/10/09 05:26:53;;;;;;;3.63;1.70;;;16.50;99.90;;;;;;5120110;27;20204;-71
2023/10/09 05:29:34;;;;;;;3.78;2.00;;;16.60;99.90;;;;;;5121137;27;20628;-73
2023/10/09 05:32:15;;;;;;;2.80;2.00;;;16.50;99.90;;;;;;5116791;27;20201;-71
2023/10/09 05:37:25;;;;;;;3.13;2.00;;;16.40;99.90;;;;;;5119887;27;20791;-72
2023/10/09 05:40:21;;;;;;;3.13;2.13;;;16.40;99.90;;;;;;5122862;27;20222;-72
2023/10/09 05:42:57;;;;;;;3.38;2.03;;;16.30;99.90;;;;;;5116188;27;20208;-72
2023/10/09 05:51:40;;;;;;;3.63;1.95;;;16.30;99.90;;;;;;5102956;27;20340;-72
2023/10/09 05:54:23;;;;;;;2.65;1.90;;;16.30;99.90;;;;;;5100877;27;20287;-71
2023/10/09 06:08:06;;;;;;;2.85;1.98;;;16.50;99.90;;;;;;5098962;27;20218;-72
2023/10/09 06:10:39;;;;;;;3.45;2.25;;;16.60;99.90;;;;;;5102230;27;20247;-72
2023/10/09 06:13:07;;;;;;;4.93;2.25;;;16.60;99.90;;;;;;5100909;27;20200;-70
2023/10/09 06:16:09;;;;;;;3.47;2.20;;;16.70;99.90;;;;;;5104231;27;20196;-71
2023/10/09 06:18:41;;;;;;;5.05;2.40;;;16.70;99.90;;;;;;5101668;27;20188;-70
2023/10/09 06:21:19;;;;;;;3.10;2.10;;;16.70;99.90;;;;;;5096713;27;20355;-72
2023/10/09 06:26:33;;;;;;;3.67;2.50;;;16.80;99.90;;;;;;5097504;27;20215;-71
2023/10/09 06:34:32;;;;;;;5.75;2.63;;;17.00;99.90;;;;;;5100259;27;20569;-72
2023/10/09 06:37:03;;;;;;;6.00;2.53;;;17.30;99.90;;;;;;5099394;27;20262;-72
2023/10/09 06:44:57;;;;;;;7.45;2.65;;;18.70;99.90;;;;;;5098640;27;20234;-72
2023/10/09 06:47:24;;;;;;;10.13;2.53;;;19.20;99.90;;;;;;5111323;27;20277;-71
2023/10/09 06:55:32;;;;;;;4.85;2.65;;;20.60;99.90;;;;;;5098346;27;20195;-72
2023/10/09 06:58:01;;;;;;;10.27;3.30;;;21.00;99.90;;;;;;5105287;27;20197;-73
2023/10/09 07:03:13;;;;;;;8.95;3.30;;;21.50;99.90;;;;;;5100604;27;20307;-71
2023/10/09 07:06:00;;;;;;;6.65;2.97;;;21.90;99.90;;;;;;5098956;27;20220;-71
2023/10/09 07:08:32;;;;;;;7.65;3.05;;;22.10;99.90;;;;;;5101219;27;20220;-73
2023/10/09 07:11:20;;;;;;;7.13;2.80;;;22.30;99.90;;;;;;5099428;27;20272;-72
2023/10/09 07:13:53;;;;;;;8.35;3.22;;;22.40;99.90;;;;;;5120325;27;20879;-72
2023/10/09 07:16:28;;;;;;;7.07;2.95;;;22.50;99.90;;;;;;5115876;27;20282;-73
2023/10/09 07:19:09;;;;;;;5.53;3.10;;;22.70;99.90;;;;;;5112116;27;20298;-70
2023/10/09 07:21:39;;;;;;;7.47;3.13;;;22.90;99.90;;;;;;5112522;27;20212;-72
2023/10/09 07:24:14;;;;;;;8.35;3.05;;;23.10;99.90;;;;;;5117572;27;20284;-72
2023/10/09 07:26:52;;;;;;;5.45;2.50;;;23.30;99.90;;;;;;5111811;27;20207;-72
2023/10/09 07:29:22;;;;;;;8.70;2.67;;;23.40;99.90;;;;;;5115870;27;20240;-69
2023/10/09 07:31:57;;;;;;;8.07;3.10;;;23.60;99.90;;;;;;5115489;27;20220;-71
2023/10/09 07:34:52;;;;;;;9.30;3.10;;;23.50;99.90;;;;;;5117067;27;20203;-71
2023/10/09 07:37:22;;;;;;;8.52;3.00;;;23.30;99.90;;;;;;5115002;27;20211;-71
2023/10/09 07:39:56;;;;;;;6.10;2.85;;;23.20;99.90;;;;;;5117521;27;20567;-71
2023/10/09 07:42:43;;;;;;;7.55;3.05;;;23.10;99.90;;;;;;5117813;27;20191;-72
2023/10/09 07:46:29;;;;;;;6.43;2.75;;;23.40;99.90;;;;;;5114780;27;20196;-71
2023/10/09 07:48:04;;;;;;;8.63;2.97;;;23.60;99.90;;;;;;5116828;27;20220;-72
2023/10/09 07:50:40;;;;;;;8.63;2.85;;;23.90;99.90;;;;;;5115697;27;20212;-72
2023/10/09 07:53:18;;;;;;;11.18;3.03;;;24.20;99.90;;;;;;5114087;27;20203;-72
2023/10/09 07:55:54;;;;;;;7.53;3.08;;;24.40;99.90;;;;;;5112802;27;20704;-72
2023/10/09 07:58:25;;;;;;;10.50;2.67;;;24.50;99.90;;;;;;5117525;27;20253;-71
2023/10/09 08:01:15;;;;;;;13.65;3.47;;;24.40;99.90;;;;;;5114844;27;20307;-71
2023/10/09 08:03:45;;;;;;;8.40;3.17;;;24.20;99.90;;;;;;5114944;27;20678;-71
2023/10/09 08:11:59;;;;;;;6.97;3.17;;;24.20;99.90;;;;;;5112851;27;20247;-70
2023/10/09 08:14:42;;;;;;;10.05;3.00;;;24.50;99.90;;;;;;5113723;27;20223;-71
2023/10/09 08:17:15;;;;;;;13.38;2.95;;;24.80;99.90;;;;;;5110278;27;20203;-72
2023/10/09 08:19:54;;;;;;;8.35;3.50;;;25.20;99.90;;;;;;5116225;27;20303;-72
2023/10/09 08:22:50;;;;;;;10.02;3.28;;;25.40;99.90;;;;;;5113688;27;20199;-71
2023/10/09 08:25:28;;;;;;;6.32;2.72;;;25.60;99.90;;;;;;5115750;27;20367;-70
2023/10/09 08:27:58;;;;;;;5.57;2.30;;;25.70;99.90;;;;;;5138790;27;20229;-74
2023/10/09 08:30:48;;;;;;;6.80;2.92;;;26.00;99.90;;;;;;5140528;27;20215;-72
2023/10/09 08:36:04;;;;;;;7.95;2.65;;;26.00;99.90;;;;;;5138416;28;20326;-72
2023/10/09 08:38:34;;;;;;;7.32;2.85;;;26.10;99.90;;;;;;5125643;27;20853;-72
2023/10/09 08:41:15;;;;;;;10.45;3.08;;;26.10;99.90;;;;;;5119149;27;20202;-72
2023/10/09 08:43:51;;;;;;;8.77;3.20;;;26.00;99.90;;;;;;5112035;27;20585;-72
2023/10/09 08:46:22;;;;;;;10.63;3.40;;;26.00;99.90;;;;;;5114533;27;20286;-69
2023/10/09 08:48:50;;;;;;;9.88;3.03;;;26.00;99.90;;;;;;5118312;27;20212;-72
2023/10/09 08:51:19;;;;;;;5.65;2.85;;;26.00;99.90;;;;;;5114321;27;20220;-72
2023/10/09 08:53:47;;;;;;;8.48;3.10;;;25.60;99.90;;;;;;5118539;27;20624;-72
2023/10/09 08:56:21;;;;;;;11.75;2.97;;;25.60;99.90;;;;;;5118146;27;20261;-71
2023/10/09 08:58:51;;;;;;;11.30;3.08;;;25.50;99.90;;;;;;5122255;27;20203;-71
2023/10/09 09:01:21;;;;;;;6.97;3.08;;;25.50;99.90;;;;;;5115432;27;20734;-72
2023/10/09 09:03:51;;;;;;;6.53;2.75;;;25.50;99.90;;;;;;5118625;27;20204;-71
2023/10/09 09:06:19;;;;;;;8.98;3.17;;;25.70;99.90;;;;;;5117944;27;20282;-71
2023/10/09 09:08:47;;;;;;;6.93;3.05;;;25.90;99.90;;;;;;5117244;27;20224;-72
2023/10/09 09:11:17;;;;;;;6.88;2.88;;;25.50;99.90;;;;;;5116359;27;20285;-71
2023/10/09 09:13:51;;;;;;;8.50;3.05;;;25.50;99.90;;;;;;5113316;27;20233;-72
2023/10/09 09:16:20;;;;;;;8.38;3.08;;;25.90;99.90;;;;;;5118202;27;20196;-71
2023/10/09 09:19:03;;;;;;;9.25;3.25;;;25.90;99.90;;;;;;5116144;27;20803;-71
2023/10/09 09:21:37;;;;;;;9.70;3.47;;;25.60;99.90;;;;;;5113985;27;20197;-71
2023/10/09 09:24:15;;;;;;;9.65;2.67;;;25.30;99.90;;;;;;5117199;27;20208;-71
2023/10/09 09:26:45;;;;;;;7.20;3.20;;;25.20;99.90;;;;;;5114834;27;20192;-71
2023/10/09 09:29:17;;;;;;;8.00;3.22;;;24.90;99.90;;;;;;5115557;27;20309;-72
2023/10/09 09:31:53;;;;;;;10.43;3.08;;;24.70;99.90;;;;;;5117577;27;22154;-71
2023/10/09 09:34:25;;;;;;;6.85;2.47;;;24.80;99.90;;;;;;5115887;27;20316;-71
2023/10/09 09:36:54;;;;;;;6.90;3.00;;;25.10;99.90;;;;;;5113474;27;20299;-71
2023/10/09 09:39:29;;;;;;;6.47;2.88;;;25.20;99.90;;;;;;5117943;27;20707;-72
2023/10/09 09:42:03;;;;;;;7.55;2.88;;;24.90;99.90;;;;;;5120041;27;20231;-71
2023/10/09 09:44:33;;;;;;;8.23;3.28;;;24.60;99.90;;;;;;5116016;27;20201;-72
2023/10/09 09:47:01;;;;;;;8.65;3.67;;;24.30;99.90;;;;;;5122230;27;20200;-73
2023/10/09 09:49:32;;;;;;;11.00;3.30;;;24.30;99.90;;;;;;5115874;27;20241;-72
2023/10/09 09:52:09;;;;;;;10.90;3.47;;;24.20;99.90;;;;;;5118719;27;20219;-71
2023/10/09 09:54:37;;;;;;;9.80;3.10;;;24.70;99.90;;;;;;5115626;27;20252;-70
2023/10/09 09:57:08;;;;;;;5.43;2.60;;;25.00;99.90;;;;;;5122993;27;20196;-72
2023/10/09 09:59:49;;;;;;;7.07;2.70;;;24.90;99.90;;;;;;5117676;27;20698;-72
2023/10/09 10:02:23;;;;;;;8.20;3.10;;;24.80;99.90;;;;;;5117202;27;20207;-71
2023/10/09 10:04:57;;;;;;;7.50;2.85;;;25.00;99.90;;;;;;5117182;27;20195;-71
2023/10/09 10:07:29;;;;;;;8.93;3.20;;;25.10;99.90;;;;;;5117422;27;20249;-72
2023/10/09 10:09:57;;;;;;;8.98;2.92;;;25.40;99.90;;;;;;5113520;27;20219;-73
2023/10/09 10:13:01;;;;;;;8.00;2.97;;;26.00;99.90;;;;;;5117654;27;20201;-71
2023/10/09 10:16:02;;;;;;;9.23;3.65;;;26.10;99.90;;;;;;5122065;27;20196;-74
2023/10/09 10:18:35;;;;;;;6.60;2.88;;;25.90;99.90;;;;;;5118815;27;20277;-72
2023/10/09 10:21:17;;;;;;;11.32;3.83;;;25.30;99.90;;;;;;5120685;27;20200;-74
2023/10/09 10:23:47;;;;;;;252.05;104.53;;;24.80;99.90;;;;;;5114148;27;20205;-72
2023/10/09 10:26:25;;;;;;;99.68;41.03;;;24.50;99.90;;;;;;5113698;27;20416;-71
2023/10/09 10:29:23;;;;;;;70.22;31.02;;;24.70;99.90;;;;;;5116236;27;20208;-71
2023/10/09 10:32:00;;;;;;;36.95;16.42;;;24.90;99.90;;;;;;5116167;27;20862;-71
2023/10/09 10:34:27;;;;;;;22.75;10.63;;;25.20;99.90;;;;;;5131531;27;20252;-74
2023/10/09 10:37:06;;;;;;;13.50;6.78;;;25.10;99.90;;;;;;5142689;27;20257;-73
2023/10/09 10:39:43;;;;;;;9.25;4.22;;;25.70;99.90;;;;;;5143982;27;20200;-76
2023/10/09 10:42:15;;;;;;;8.15;3.70;;;26.00;99.90;;;;;;5148041;27;20199;-75
2023/10/09 10:44:46;;;;;;;12.55;4.30;;;26.40;99.90;;;;;;5147999;27;20196;-73
2023/10/09 10:49:59;;;;;;;9.82;3.40;;;27.10;99.90;;;;;;5127742;27;20310;-71
2023/10/09 10:52:41;;;;;;;11.77;3.83;;;27.30;99.90;;;;;;5141883;27;20307;-72
2023/10/09 10:55:17;;;;;;;9.88;3.28;;;27.40;99.90;;;;;;5141486;27;20181;-73
2023/10/09 10:58:00;;;;;;;10.60;3.30;;;27.40;99.90;;;;;;5139846;27;20237;-73
2023/10/09 11:03:23;;;;;;;10.25;3.40;;;27.80;99.90;;;;;;5137918;27;20727;-74
2023/10/09 11:05:55;;;;;;;15.68;3.78;;;27.80;99.90;;;;;;5129851;27;20204;-73
2023/10/09 11:08:32;;;;;;;9.23;3.40;;;27.80;99.90;;;;;;5123303;27;20328;-73
2023/10/09 11:11:15;;;;;;;9.85;3.50;;;27.60;99.90;;;;;;5116195;27;20717;-72
2023/10/09 11:13:53;;;;;;;8.93;3.08;;;27.30;99.90;;;;;;5112898;27;20203;-73
2023/10/09 11:16:28;;;;;;;8.88;2.75;;;27.40;99.90;;;;;;5121340;27;20195;-72
2023/10/09 11:18:57;;;;;;;11.85;3.58;;;27.40;99.90;;;;;;5113978;27;20238;-71
2023/10/09 11:21:31;;;;;;;6.07;2.97;;;27.40;99.90;;;;;;5118303;27;21019;-71
2023/10/09 11:24:24;;;;;;;10.45;3.42;;;27.50;99.90;;;;;;5115112;27;20199;-73
2023/10/09 11:26:54;;;;;;;10.15;3.08;;;27.50;99.90;;;;;;5121828;27;20337;-72
2023/10/09 11:29:29;;;;;;;8.80;2.78;;;27.50;99.90;;;;;;5123925;27;20220;-73
2023/10/09 11:32:05;;;;;;;10.38;3.42;;;27.40;99.90;;;;;;5121851;27;20290;-71
2023/10/09 11:34:32;;;;;;;7.40;2.92;;;26.90;99.90;;;;;;5112955;27;21135;-73
2023/10/09 11:37:01;;;;;;;9.90;3.25;;;26.60;99.90;;;;;;5113845;27;20192;-71
2023/10/09 11:39:34;;;;;;;10.05;3.22;;;26.70;99.90;;;;;;5118667;27;20278;-74
2023/10/09 11:42:06;;;;;;;8.93;2.90;;;26.80;99.90;;;;;;5115539;27;20192;-72
2023/10/09 11:44:39;;;;;;;6.25;2.90;;;26.50;99.90;;;;;;5115408;27;20283;-71
2023/10/09 11:47:23;;;;;;;8.73;2.88;;;26.50;99.90;;;;;;5121081;27;20184;-71
2023/10/09 11:49:58;;;;;;;8.30;2.75;;;26.60;99.90;;;;;;5120397;27;20268;-73
2023/10/09 11:52:36;;;;;;;8.77;2.60;;;26.70;99.90;;;;;;5115582;27;20207;-73
2023/10/09 11:55:06;;;;;;;6.28;2.80;;;26.50;99.90;;;;;;5116845;27;20283;-74
2023/10/09 11:57:35;;;;;;;11.27;2.75;;;26.60;99.90;;;;;;5115267;27;20283;-74
2023/10/09 12:00:10;;;;;;;11.43;3.35;;;27.00;99.90;;;;;;5115088;27;20207;-73
2023/10/09 12:02:43;;;;;;;8.40;3.13;;;27.40;99.90;;;;;;5117287;27;20300;-71
2023/10/09 12:05:16;;;;;;;8.27;3.42;;;27.70;99.90;;;;;;5124091;27;20282;-72
2023/10/09 12:07:45;;;;;;;9.02;3.47;;;27.80;99.90;;;;;;5110447;27;20913;-72
2023/10/09 12:10:24;;;;;;;8.82;3.33;;;27.80;99.90;;;;;;5116017;27;20227;-71
2023/10/09 12:12:51;;;;;;;9.88;3.20;;;27.30;99.90;;;;;;5119931;27;20238;-72
2023/10/09 12:15:19;;;;;;;5.82;2.80;;;27.20;99.90;;;;;;5127383;27;20268;-73
2023/10/09 12:17:47;;;;;;;5.53;2.47;;;27.30;99.90;;;;;;5128459;27;21478;-72
2023/10/09 12:20:30;;;;;;;7.97;3.47;;;27.40;99.90;;;;;;5125145;27;20223;-72
2023/10/09 12:22:58;;;;;;;9.02;3.05;;;27.50;99.90;;;;;;5117783;27;20206;-72
2023/10/09 12:25:31;;;;;;;7.05;2.88;;;27.60;99.90;;;;;;5111175;27;20291;-73
2023/10/09 12:27:58;;;;;;;8.32;2.92;;;27.50;99.90;;;;;;5116686;27;20810;-73
2023/10/09 12:30:27;;;;;;;7.00;2.78;;;27.60;99.90;;;;;;5119046;27;20238;-72
2023/10/09 12:32:57;;;;;;;5.55;2.30;;;27.60;99.90;;;;;;5115196;27;20284;-73
2023/10/09 12:35:24;;;;;;;9.77;3.08;;;27.70;99.90;;;;;;5125248;27;20222;-76
2023/10/09 12:37:54;;;;;;;6.32;3.05;;;27.80;99.90;;;;;;5127666;27;20229;-72
2023/10/09 12:40:27;;;;;;;8.10;2.70;;;27.90;99.90;;;;;;5113615;27;20204;-72
2023/10/09 12:42:58;;;;;;;8.50;2.88;;;28.00;99.90;;;;;;5118898;27;20214;-73
2023/10/09 12:45:27;;;;;;;7.88;2.70;;;28.00;99.90;;;;;;5115595;27;20279;-73
2023/10/09 12:47:58;;;;;;;7.15;2.83;;;27.80;99.90;;;;;;5120197;27;20227;-72
2023/10/09 12:50:28;;;;;;;10.38;2.83;;;27.60;99.90;;;;;;5119702;27;20996;-71
2023/10/09 12:52:56;;;;;;;8.48;2.75;;;27.70;99.90;;;;;;5115652;27;20771;-70
2023/10/09 12:55:31;;;;;;;9.27;2.90;;;27.80;99.90;;;;;;5114999;27;20193;-73
2023/10/09 12:58:06;;;;;;;7.80;2.97;;;27.80;99.90;;;;;;5115756;27;20731;-73
2023/10/09 13:00:33;;;;;;;5.43;2.60;;;27.90;99.90;;;;;;5108197;27;20227;-73
2023/10/09 13:03:01;;;;;;;6.97;2.90;;;28.00;99.90;;;;;;5114695;27;20197;-73
2023/10/09 13:05:29;;;;;;;10.18;2.80;;;27.90;99.90;;;;;;5107289;27;20315;-73
2023/10/09 13:07:56;;;;;;;10.15;2.95;;;27.80;99.90;;;;;;5117825;27;20678;-71
2023/10/09 13:10:25;;;;;;;5.20;2.70;;;27.70;99.90;;;;;;5107304;27;20217;-71
2023/10/09 13:12:56;;;;;;;8.73;2.33;;;27.60;99.90;;;;;;5114218;27;20803;-71
2023/10/09 13:15:24;;;;;;;8.45;2.53;;;27.60;99.90;;;;;;5113056;27;20297;-72
2023/10/09 13:17:53;;;;;;;10.25;2.63;;;27.30;99.90;;;;;;5116998;27;20196;-72
2023/10/09 13:20:21;;;;;;;11.20;3.50;;;27.30;99.90;;;;;;5114844;27;20224;-72
2023/10/09 13:22:48;;;;;;;7.63;3.22;;;27.40;99.90;;;;;;5109147;27;20310;-72
2023/10/09 13:25:17;;;;;;;6.50;2.47;;;27.30;99.90;;;;;;5114908;27;20858;-72
2023/10/09 13:27:50;;;;;;;11.25;3.30;;;27.40;99.90;;;;;;5113417;27;20291;-72
2023/10/09 13:30:23;;;;;;;6.75;2.83;;;27.50;99.90;;;;;;5117560;27;20251;-72
2023/10/09 13:32:51;;;;;;;12.02;2.67;;;27.50;99.90;;;;;;5114029;27;20200;-72
2023/10/09 13:35:19;;;;;;;5.85;2.22;;;27.50;99.90;;;;;;5119971;27;20201;-70
2023/10/09 13:37:53;;;;;;;7.38;2.83;;;27.60;99.90;;;;;;5120816;27;20208;-72
2023/10/09 13:40:27;;;;;;;8.02;2.55;;;27.70;99.90;;;;;;5118425;27;20216;-72
2023/10/09 13:42:58;;;;;;;10.30;2.80;;;27.70;99.90;;;;;;5122787;27;20295;-70
2023/10/09 13:45:27;;;;;;;7.05;3.10;;;27.80;99.90;;;;;;5120260;27;20200;-72
2023/10/09 13:47:57;;;;;;;9.32;3.00;;;27.90;99.90;;;;;;5117449;27;20223;-72
2023/10/09 13:50:31;;;;;;;7.47;2.47;;;27.90;99.90;;;;;;5120225;27;20384;-71
2023/10/09 13:52:59;;;;;;;7.85;2.47;;;27.90;99.90;;;;;;5120942;27;20263;-72
2023/10/09 13:55:31;;;;;;;5.13;2.20;;;27.90;99.90;;;;;;5115403;27;20261;-73
2023/10/09 13:57:58;;;;;;;5.82;2.20;;;27.90;99.90;;;;;;5118535;27;20192;-71
2023/10/09 14:00:34;;;;;;;6.90;2.22;;;27.70;99.90;;;;;;5122461;27;20211;-72
2023/10/09 14:03:11;;;;;;;5.22;2.03;;;27.50;99.90;;;;;;5115899;27;21022;-71
2023/10/09 14:05:51;;;;;;;10.73;2.63;;;27.40;99.90;;;;;;5116112;27;20206;-72
2023/10/09 14:08:21;;;;;;;4.95;2.35;;;27.40;99.90;;;;;;5122401;27;20196;-70
2023/10/09 14:10:49;;;;;;;5.57;2.50;;;27.30;99.90;;;;;;5117291;27;20238;-71
2023/10/09 14:13:16;;;;;;;7.40;2.90;;;27.20;99.90;;;;;;5118635;27;20292;-73
2023/10/09 14:15:45;;;;;;;5.35;2.53;;;27.10;99.90;;;;;;5114690;27;20204;-73
2023/10/09 14:18:14;;;;;;;4.43;2.33;;;27.20;99.90;;;;;;5118225;27;20252;-73
2023/10/09 14:20:43;;;;;;;5.20;2.50;;;27.40;99.90;;;;;;5116416;27;20224;-71
2023/10/09 14:23:12;;;;;;;5.75;2.30;;;27.40;99.90;;;;;;5118146;27;20192;-73
2023/10/09 14:25:40;;;;;;;7.70;2.53;;;27.30;99.90;;;;;;5115946;27;20208;-71
2023/10/09 14:28:08;;;;;;;5.90;2.40;;;27.40;99.90;;;;;;5121085;27;20202;-72
2023/10/09 14:30:41;;;;;;;6.32;2.10;;;27.30;99.90;;;;;;5115798;27;20304;-71
2023/10/09 14:33:12;;;;;;;6.68;2.20;;;27.40;99.90;;;;;;5108939;27;20280;-72
2023/10/09 14:35:41;;;;;;;6.03;1.85;;;27.40;99.90;;;;;;5122180;27;20196;-71